Time;durP1;ratioP1;P1;durP2;ratioP2;P2;SDS_P1;SDS_P2;PMS_P1;PMS_P2;Temp;Humidity;BMP_temperature;BMP_pressure;BME280_temperature;BME280_humidity;BME280_pressure;Samples;Min_cycle;Max_cycle;Signal;HPM_P1;HPM_P2
2023/10/07 00:00:32;;;;;;;7.72;4.00;;;;;;;;;;12979266;22;20383;-84
2023/10/07 00:05:35;;;;;;;6.17;3.83;;;;;;;;;;12979048;22;20875;-86
2023/10/07 00:10:38;;;;;;;6.82;3.92;;;;;;;;;;13000736;22;20455;-85
2023/10/07 00:15:44;;;;;;;8.02;3.65;;;;;;;;;;12978238;22;20367;-85
2023/10/07 00:20:50;;;;;;;6.20;3.90;;;;;;;;;;12977901;22;20383;-85
2023/10/07 00:25:54;;;;;;;7.43;4.23;;;;;;;;;;13000027;22;20482;-86
2023/10/07 00:31:02;;;;;;;5.87;3.67;;;;;;;;;;12977759;22;20424;-85
2023/10/07 00:36:06;;;;;;;6.73;3.83;;;;;;;;;;12978200;22;20366;-85
2023/10/07 00:41:11;;;;;;;7.38;3.88;;;;;;;;;;12978499;22;20719;-86
2023/10/07 00:46:28;;;;;;;5.90;4.25;;;;;;;;;;12978686;22;20841;-85
2023/10/07 00:51:34;;;;;;;7.90;4.13;;;;;;;;;;12978162;22;20690;-85
2023/10/07 00:56:42;;;;;;;6.00;3.70;;;;;;;;;;12986214;22;20359;-84
2023/10/07 01:01:50;;;;;;;7.28;3.30;;;;;;;;;;12977786;22;20408;-85
2023/10/07 01:07:02;;;;;;;5.95;3.90;;;;;;;;;;12978105;22;20833;-84
2023/10/07 01:12:08;;;;;;;6.00;3.42;;;;;;;;;;12978200;22;20826;-84
2023/10/07 01:17:14;;;;;;;6.23;3.53;;;;;;;;;;12969184;22;20363;-85
2023/10/07 01:22:23;;;;;;;7.22;4.13;;;;;;;;;;12972518;22;20367;-85
2023/10/07 01:27:35;;;;;;;6.45;3.88;;;;;;;;;;12973802;22;20366;-85
2023/10/07 01:32:48;;;;;;;6.83;4.00;;;;;;;;;;12977820;22;20346;-85
2023/10/07 01:37:59;;;;;;;8.68;4.40;;;;;;;;;;12977424;22;20371;-85
2023/10/07 01:43:03;;;;;;;7.43;3.73;;;;;;;;;;12981920;22;20370;-85
2023/10/07 01:48:08;;;;;;;7.30;3.57;;;;;;;;;;12981402;22;21166;-85
2023/10/07 01:53:12;;;;;;;7.43;4.15;;;;;;;;;;12980779;22;20424;-84
2023/10/07 01:58:19;;;;;;;5.50;3.97;;;;;;;;;;12992229;22;20386;-85
2023/10/07 02:03:24;;;;;;;7.53;4.25;;;;;;;;;;12981040;22;20935;-85
2023/10/07 02:08:29;;;;;;;7.10;4.07;;;;;;;;;;12980655;22;20420;-86
2023/10/07 02:13:31;;;;;;;8.48;4.40;;;;;;;;;;13002132;22;20420;-85
2023/10/07 02:18:35;;;;;;;7.63;4.10;;;;;;;;;;13001262;22;20382;-84
2023/10/07 02:23:40;;;;;;;6.60;4.23;;;;;;;;;;12980886;22;20366;-85
2023/10/07 02:28:43;;;;;;;6.57;4.10;;;;;;;;;;12981069;22;20378;-85
2023/10/07 02:33:51;;;;;;;9.13;4.57;;;;;;;;;;12980878;22;20362;-84
2023/10/07 02:38:56;;;;;;;6.65;3.75;;;;;;;;;;12979286;22;20857;-84
2023/10/07 02:44:04;;;;;;;10.23;4.68;;;;;;;;;;12980011;22;20362;-85
2023/10/07 02:49:09;;;;;;;6.77;4.20;;;;;;;;;;12979955;22;20362;-85
2023/10/07 02:54:18;;;;;;;6.93;4.60;;;;;;;;;;12980364;22;20433;-84
2023/10/07 02:59:28;;;;;;;7.22;4.50;;;;;;;;;;12985886;22;20375;-85
2023/10/07 03:04:34;;;;;;;6.43;3.90;;;;;;;;;;12977830;22;20401;-85
2023/10/07 03:09:42;;;;;;;6.40;4.10;;;;;;;;;;12985206;22;20358;-85
2023/10/07 03:14:44;;;;;;;5.90;3.87;;;;;;;;;;12980089;22;20420;-84
2023/10/07 03:19:52;;;;;;;6.05;3.35;;;;;;;;;;12978973;22;20374;-85
2023/10/07 03:25:00;;;;;;;5.65;3.42;;;;;;;;;;12979488;22;20810;-85
2023/10/07 03:30:13;;;;;;;4.68;3.40;;;;;;;;;;12979202;22;20401;-85
2023/10/07 03:35:35;;;;;;;6.40;4.00;;;;;;;;;;12980261;22;20393;-85
2023/10/07 03:40:39;;;;;;;7.47;3.67;;;;;;;;;;12979365;22;20683;-85
2023/10/07 03:45:41;;;;;;;5.40;4.07;;;;;;;;;;13001049;22;20397;-84
2023/10/07 03:50:43;;;;;;;7.67;4.07;;;;;;;;;;12980177;22;20370;-83
2023/10/07 03:55:47;;;;;;;5.73;3.93;;;;;;;;;;12982951;22;20366;-87
2023/10/07 04:00:50;;;;;;;6.35;4.13;;;;;;;;;;13004796;22;20424;-86
2023/10/07 04:05:54;;;;;;;7.07;4.57;;;;;;;;;;13009370;22;20362;-83
2023/10/07 04:10:58;;;;;;;8.80;4.85;;;;;;;;;;12980947;22;20393;-85
2023/10/07 04:16:01;;;;;;;7.27;4.20;;;;;;;;;;12977425;22;20479;-85
2023/10/07 04:21:04;;;;;;;7.43;3.73;;;;;;;;;;12978387;22;20383;-86
2023/10/07 04:26:10;;;;;;;7.20;4.63;;;;;;;;;;12999006;22;20370;-85
2023/10/07 04:31:12;;;;;;;7.80;4.50;;;;;;;;;;12977841;22;20367;-85
2023/10/07 04:36:17;;;;;;;7.00;4.43;;;;;;;;;;12978544;22;20678;-86
2023/10/07 04:41:32;;;;;;;6.28;3.88;;;;;;;;;;12978185;22;20417;-86
2023/10/07 04:46:42;;;;;;;7.32;4.15;;;;;;;;;;12977111;22;20358;-85
2023/10/07 04:51:48;;;;;;;8.80;3.65;;;;;;;;;;12977155;22;20579;-86
2023/10/07 04:57:00;;;;;;;7.15;4.07;;;;;;;;;;12981483;22;20363;-86
2023/10/07 05:02:10;;;;;;;9.82;4.85;;;;;;;;;;12976696;22;20382;-85
2023/10/07 05:07:12;;;;;;;7.45;4.07;;;;;;;;;;12992129;22;20358;-84
2023/10/07 05:12:16;;;;;;;5.23;3.50;;;;;;;;;;12970272;22;20366;-85
2023/10/07 05:17:20;;;;;;;6.20;4.00;;;;;;;;;;12971963;22;20367;-85
2023/10/07 05:22:25;;;;;;;7.72;4.40;;;;;;;;;;12970244;22;20416;-86
2023/10/07 05:27:30;;;;;;;8.95;4.20;;;;;;;;;;12971402;22;20385;-85
2023/10/07 05:32:35;;;;;;;6.95;4.18;;;;;;;;;;12990698;22;20354;-83
2023/10/07 05:37:37;;;;;;;9.55;4.15;;;;;;;;;;12972329;22;20420;-83
2023/10/07 05:42:41;;;;;;;8.67;4.30;;;;;;;;;;12975529;22;20456;-85
2023/10/07 05:47:45;;;;;;;6.47;4.18;;;;;;;;;;12975361;22;20367;-83
2023/10/07 05:52:47;;;;;;;8.68;4.45;;;;;;;;;;12972633;22;20699;-84
2023/10/07 05:57:52;;;;;;;7.27;4.00;;;;;;;;;;12974111;22;20432;-84
2023/10/07 06:02:55;;;;;;;7.63;4.43;;;;;;;;;;12970033;22;20382;-84
2023/10/07 06:07:58;;;;;;;6.93;4.23;;;;;;;;;;12969931;22;20801;-84
2023/10/07 06:13:08;;;;;;;9.53;4.20;;;;;;;;;;12972840;22;20428;-83
2023/10/07 06:18:10;;;;;;;9.75;4.80;;;;;;;;;;12948716;22;20355;-86
2023/10/07 06:23:14;;;;;;;7.20;4.30;;;;;;;;;;12979338;22;20375;-86
2023/10/07 06:28:29;;;;;;;7.78;4.53;;;;;;;;;;12980498;22;20397;-85
2023/10/07 06:33:32;;;;;;;7.68;4.40;;;;;;;;;;12979156;22;20423;-83
2023/10/07 06:38:34;;;;;;;7.13;4.47;;;;;;;;;;12979995;22;20363;-83
2023/10/07 06:43:40;;;;;;;5.95;4.13;;;;;;;;;;12980097;22;20723;-86
2023/10/07 06:48:43;;;;;;;6.50;4.43;;;;;;;;;;12980637;22;20443;-85
2023/10/07 06:53:45;;;;;;;6.93;4.60;;;;;;;;;;12980219;22;20429;-85
2023/10/07 06:58:53;;;;;;;9.73;4.40;;;;;;;;;;12981612;22;20375;-83
2023/10/07 07:03:55;;;;;;;6.95;4.10;;;;;;;;;;12978483;22;20363;-84
2023/10/07 07:08:58;;;;;;;7.85;3.92;;;;;;;;;;12977712;22;20367;-85
2023/10/07 07:14:01;;;;;;;7.57;4.07;;;;;;;;;;13000696;22;20370;-86
2023/10/07 07:19:06;;;;;;;7.00;4.17;;;;;;;;;;12979341;22;20660;-85
2023/10/07 07:24:09;;;;;;;6.43;4.10;;;;;;;;;;12978635;22;20359;-83
2023/10/07 07:29:17;;;;;;;8.38;4.38;;;;;;;;;;12977879;22;20367;-85
2023/10/07 07:34:23;;;;;;;9.02;4.47;;;;;;;;;;12972875;22;20412;-85
2023/10/07 07:39:29;;;;;;;8.05;4.50;;;;;;;;;;12974047;22;20429;-82
2023/10/07 07:44:33;;;;;;;6.83;4.30;;;;;;;;;;12973869;22;20444;-84
2023/10/07 07:49:38;;;;;;;7.90;4.43;;;;;;;;;;12975810;22;20452;-82
2023/10/07 07:54:41;;;;;;;6.75;4.85;;;;;;;;;;12977049;22;20367;-85
2023/10/07 07:59:44;;;;;;;7.17;4.57;;;;;;;;;;12982458;22;20436;-83
2023/10/07 08:04:48;;;;;;;5.80;3.80;;;;;;;;;;12979589;22;20379;-84
2023/10/07 08:09:51;;;;;;;6.50;3.83;;;;;;;;;;12977627;22;20730;-84
2023/10/07 08:14:58;;;;;;;7.50;3.60;;;;;;;;;;12978025;22;20367;-84
2023/10/07 08:20:06;;;;;;;6.45;3.65;;;;;;;;;;12978160;22;20378;-85
2023/10/07 08:25:09;;;;;;;6.15;3.55;;;;;;;;;;12977704;22;20354;-85
2023/10/07 08:30:28;;;;;;;5.15;3.05;;;;;;;;;;12976268;22;20420;-85
2023/10/07 08:35:34;;;;;;;6.57;3.10;;;;;;;;;;12976697;22;20895;-85
2023/10/07 08:40:44;;;;;;;7.65;3.47;;;;;;;;;;12976082;22;20417;-84
2023/10/07 08:45:52;;;;;;;6.13;4.00;;;;;;;;;;12978195;22;20351;-84
2023/10/07 08:50:58;;;;;;;8.57;3.80;;;;;;;;;;12974168;22;20367;-84
2023/10/07 08:56:01;;;;;;;7.18;4.25;;;;;;;;;;12981679;22;20354;-84
2023/10/07 09:01:07;;;;;;;6.18;4.43;;;;;;;;;;12984421;22;20387;-85
2023/10/07 09:06:11;;;;;;;9.95;5.82;;;;;;;;;;12980265;22;20424;-84
2023/10/07 09:11:18;;;;;;;7.85;4.30;;;;;;;;;;12976897;22;20363;-84
2023/10/07 09:16:25;;;;;;;7.47;4.90;;;;;;;;;;12977523;22;20428;-85
2023/10/07 09:21:33;;;;;;;7.63;4.90;;;;;;;;;;12998536;22;20935;-85
2023/10/07 09:26:37;;;;;;;9.85;5.03;;;;;;;;;;12976944;22;20831;-84
2023/10/07 09:31:42;;;;;;;7.40;4.88;;;;;;;;;;12976919;22;20389;-84
2023/10/07 09:36:46;;;;;;;8.52;5.43;;;;;;;;;;12976543;22;20428;-84
2023/10/07 09:42:03;;;;;;;9.15;5.88;;;;;;;;;;12976065;22;20409;-85
2023/10/07 09:47:14;;;;;;;10.90;6.37;;;;;;;;;;12974254;22;20359;-84
2023/10/07 09:52:29;;;;;;;8.32;5.30;;;;;;;;;;12980083;22;20397;-86
2023/10/07 09:57:42;;;;;;;9.90;5.75;;;;;;;;;;12980941;22;20439;-86
2023/10/07 10:03:05;;;;;;;10.03;6.07;;;;;;;;;;13001578;22;20374;-87
2023/10/07 10:08:28;;;;;;;9.70;6.00;;;;;;;;;;12974369;22;20362;-86
2023/10/07 10:13:51;;;;;;;9.98;6.43;;;;;;;;;;12977983;22;21066;-87
2023/10/07 10:19:12;;;;;;;9.25;5.93;;;;;;;;;;12996734;22;20741;-86
2023/10/07 10:24:15;;;;;;;10.07;6.18;;;;;;;;;;12965738;22;20420;-87
2023/10/07 10:29:22;;;;;;;9.80;6.35;;;;;;;;;;12971801;22;20432;-84
2023/10/07 10:34:27;;;;;;;10.98;6.13;;;;;;;;;;12971297;22;21038;-84
2023/10/07 10:39:32;;;;;;;10.07;6.70;;;;;;;;;;12968402;22;20366;-84
2023/10/07 10:44:38;;;;;;;10.20;6.45;;;;;;;;;;12972386;22;20452;-84
2023/10/07 10:49:44;;;;;;;12.70;6.50;;;;;;;;;;12974661;22;20363;-85
2023/10/07 10:54:46;;;;;;;9.87;6.60;;;;;;;;;;12974420;22;20400;-84
2023/10/07 10:59:48;;;;;;;12.20;7.00;;;;;;;;;;12973570;22;20397;-85
2023/10/07 11:04:54;;;;;;;10.13;6.43;;;;;;;;;;12973019;22;20386;-84
2023/10/07 11:09:57;;;;;;;11.23;6.73;;;;;;;;;;12974668;22;20358;-84
2023/10/07 11:15:07;;;;;;;19.05;7.90;;;;;;;;;;12992974;22;20420;-85
2023/10/07 11:20:19;;;;;;;11.05;7.20;;;;;;;;;;12974708;22;20412;-85
2023/10/07 11:25:24;;;;;;;12.02;7.30;;;;;;;;;;12972992;22;20741;-85
2023/10/07 11:30:26;;;;;;;11.77;7.85;;;;;;;;;;12966448;22;20386;-85
2023/10/07 11:35:30;;;;;;;10.00;7.27;;;;;;;;;;12965340;22;20374;-85
2023/10/07 11:40:33;;;;;;;11.73;7.55;;;;;;;;;;12955565;22;20408;-84
2023/10/07 11:45:36;;;;;;;14.55;7.82;;;;;;;;;;12946901;22;20366;-86
2023/10/07 11:50:40;;;;;;;10.43;7.13;;;;;;;;;;12957101;22;20371;-85
2023/10/07 11:55:42;;;;;;;13.07;7.03;;;;;;;;;;12964705;22;20383;-85
2023/10/07 12:00:46;;;;;;;11.20;7.43;;;;;;;;;;12965222;22;20375;-86
2023/10/07 12:05:50;;;;;;;10.93;6.97;;;;;;;;;;12965122;22;20691;-86
2023/10/07 12:10:52;;;;;;;16.45;9.13;;;;;;;;;;12956315;22;20405;-86
2023/10/07 12:15:54;;;;;;;17.02;8.88;;;;;;;;;;12962306;22;20769;-87
2023/10/07 12:21:00;;;;;;;13.63;8.80;;;;;;;;;;12959382;22;20382;-86
2023/10/07 12:26:02;;;;;;;13.25;8.27;;;;;;;;;;12961608;22;20830;-87
2023/10/07 12:31:10;;;;;;;13.53;8.17;;;;;;;;;;12966356;22;20382;-88
2023/10/07 12:36:15;;;;;;;17.00;8.67;;;;;;;;;;12966191;22;20432;-87
2023/10/07 12:41:17;;;;;;;13.13;8.13;;;;;;;;;;12988210;22;20375;-88
2023/10/07 12:46:20;;;;;;;12.85;8.07;;;;;;;;;;12964939;22;20370;-87
2023/10/07 12:51:24;;;;;;;14.03;8.60;;;;;;;;;;12972510;22;20421;-88
2023/10/07 12:56:26;;;;;;;13.90;8.13;;;;;;;;;;12964219;22;20427;-86
2023/10/07 13:01:31;;;;;;;13.65;8.70;;;;;;;;;;12965118;22;20379;-86
2023/10/07 13:06:42;;;;;;;13.60;7.95;;;;;;;;;;12970094;22;20362;-87
2023/10/07 13:11:45;;;;;;;14.43;8.80;;;;;;;;;;12962364;22;20368;-87
2023/10/07 13:16:56;;;;;;;13.15;8.52;;;;;;;;;;12966464;22;20397;-87
2023/10/07 13:22:01;;;;;;;14.60;8.33;;;;;;;;;;12992042;22;20888;-87
2023/10/07 13:27:04;;;;;;;11.25;7.55;;;;;;;;;;12975140;22;20355;-88
2023/10/07 13:32:09;;;;;;;12.43;8.90;;;;;;;;;;12996053;22;20416;-88
2023/10/07 13:37:12;;;;;;;12.88;8.68;;;;;;;;;;13013377;22;20362;-88
2023/10/07 13:42:16;;;;;;;13.07;8.60;;;;;;;;;;13003469;22;20598;-87
2023/10/07 13:47:19;;;;;;;15.57;8.20;;;;;;;;;;12987617;22;20814;-87
2023/10/07 13:52:24;;;;;;;13.02;8.85;;;;;;;;;;12964025;22;20471;-88
2023/10/07 13:57:31;;;;;;;13.18;8.85;;;;;;;;;;12965553;22;20433;-90
2023/10/07 14:02:33;;;;;;;14.17;9.80;;;;;;;;;;12969588;22;20390;-89
2023/10/07 14:07:37;;;;;;;14.07;9.30;;;;;;;;;;12966183;22;20421;-90
2023/10/07 14:12:39;;;;;;;12.52;8.70;;;;;;;;;;12961896;22;20887;-89
2023/10/07 14:17:42;;;;;;;13.98;9.43;;;;;;;;;;12965707;22;20420;-89
2023/10/07 14:22:46;;;;;;;15.80;9.95;;;;;;;;;;12961519;22;20846;-91
2023/10/07 14:27:49;;;;;;;16.20;10.57;;;;;;;;;;12972540;22;20931;-90
2023/10/07 14:32:51;;;;;;;16.13;9.40;;;;;;;;;;12988978;22;20370;-85
2023/10/07 14:37:56;;;;;;;16.30;10.07;;;;;;;;;;12967364;22;20691;-84
2023/10/07 14:42:58;;;;;;;15.50;10.37;;;;;;;;;;12969759;22;20391;-89
2023/10/07 14:48:01;;;;;;;14.30;9.73;;;;;;;;;;12963299;22;20378;-89
2023/10/07 14:53:05;;;;;;;14.73;10.27;;;;;;;;;;12960077;22;20382;-88
2023/10/07 14:58:07;;;;;;;15.77;10.18;;;;;;;;;;12965515;22;20420;-89
2023/10/07 15:03:11;;;;;;;18.95;11.38;;;;;;;;;;12965161;22;20409;-88
2023/10/07 15:08:17;;;;;;;17.50;9.93;;;;;;;;;;12971942;22;20440;-89
2023/10/07 15:13:19;;;;;;;16.70;10.65;;;;;;;;;;12966737;22;20435;-89
2023/10/07 15:18:21;;;;;;;14.32;9.70;;;;;;;;;;12965031;22;20382;-88
2023/10/07 15:23:25;;;;;;;13.35;9.32;;;;;;;;;;12962071;22;20436;-89
2023/10/07 15:28:27;;;;;;;14.77;9.33;;;;;;;;;;12963067;22;20444;-79
2023/10/07 15:33:30;;;;;;;13.23;8.60;;;;;;;;;;12962780;22;20761;-79
2023/10/07 15:38:33;;;;;;;16.07;9.53;;;;;;;;;;12963973;22;20382;-88
2023/10/07 15:43:36;;;;;;;17.65;9.52;;;;;;;;;;12965526;22;20386;-87
2023/10/07 15:48:38;;;;;;;15.30;9.20;;;;;;;;;;12964905;22;20592;-88
2023/10/07 15:53:43;;;;;;;14.27;8.65;;;;;;;;;;12961579;22;20452;-88
2023/10/07 15:58:45;;;;;;;15.30;9.47;;;;;;;;;;12960583;22;21170;-87
2023/10/07 16:03:47;;;;;;;14.88;9.50;;;;;;;;;;12963330;22;20387;-87
2023/10/07 16:08:53;;;;;;;13.30;9.20;;;;;;;;;;12965318;22;20379;-87
2023/10/07 16:13:57;;;;;;;16.40;9.17;;;;;;;;;;12967099;22;20424;-87
2023/10/07 16:18:59;;;;;;;15.43;8.90;;;;;;;;;;12971019;22;20397;-87
2023/10/07 16:24:05;;;;;;;14.50;10.03;;;;;;;;;;12973203;22;20382;-88
2023/10/07 16:29:07;;;;;;;16.27;8.85;;;;;;;;;;12964424;22;20358;-87
2023/10/07 16:34:11;;;;;;;16.15;8.43;;;;;;;;;;12970139;22;20362;-88
2023/10/07 16:39:16;;;;;;;15.50;8.80;;;;;;;;;;12970190;22;20367;-88
2023/10/07 16:44:19;;;;;;;14.77;8.73;;;;;;;;;;12978244;22;20603;-88
2023/10/07 16:49:22;;;;;;;16.25;8.82;;;;;;;;;;12969728;22;20420;-88
2023/10/07 16:54:25;;;;;;;16.02;9.25;;;;;;;;;;12973524;22;20363;-88
2023/10/07 16:59:28;;;;;;;16.88;10.68;;;;;;;;;;12972180;22;20367;-88
2023/10/07 17:04:30;;;;;;;18.73;10.43;;;;;;;;;;12974343;22;20386;-87
2023/10/07 17:09:34;;;;;;;14.50;9.67;;;;;;;;;;12975798;22;20370;-88
2023/10/07 17:14:37;;;;;;;14.73;9.25;;;;;;;;;;12974946;22;20358;-86
2023/10/07 17:19:40;;;;;;;16.23;9.80;;;;;;;;;;12976820;22;20363;-88
2023/10/07 17:24:44;;;;;;;16.92;9.95;;;;;;;;;;12977957;22;20530;-88
2023/10/07 17:29:46;;;;;;;14.73;9.80;;;;;;;;;;12997412;22;20428;-87
2023/10/07 17:34:49;;;;;;;17.00;9.50;;;;;;;;;;12976240;22;20367;-88
2023/10/07 17:39:55;;;;;;;14.57;9.50;;;;;;;;;;12975129;22;20486;-85
2023/10/07 17:44:57;;;;;;;18.00;11.50;;;;;;;;;;12972717;22;20382;-85
2023/10/07 17:49:59;;;;;;;16.90;10.63;;;;;;;;;;12974262;22;20379;-85
2023/10/07 17:55:04;;;;;;;19.42;10.82;;;;;;;;;;12973714;22;20371;-85
2023/10/07 18:00:09;;;;;;;15.93;9.80;;;;;;;;;;12973557;22;20392;-85
2023/10/07 18:05:12;;;;;;;16.42;10.00;;;;;;;;;;12994136;22;20440;-85
2023/10/07 18:10:16;;;;;;;14.00;9.27;;;;;;;;;;12972438;22;21343;-86
2023/10/07 18:15:19;;;;;;;18.33;9.73;;;;;;;;;;12980870;22;20374;-85
2023/10/07 18:20:21;;;;;;;14.80;9.18;;;;;;;;;;12974288;22;20434;-85
2023/10/07 18:25:24;;;;;;;15.73;9.50;;;;;;;;;;12971993;22;20387;-85
2023/10/07 18:30:27;;;;;;;16.40;9.82;;;;;;;;;;12975082;22;20402;-85
2023/10/07 18:35:29;;;;;;;15.43;9.73;;;;;;;;;;12971703;22;20698;-85
2023/10/07 18:40:33;;;;;;;15.32;9.52;;;;;;;;;;12974581;22;20379;-87
2023/10/07 18:45:35;;;;;;;17.30;9.30;;;;;;;;;;12971981;22;20390;-87
2023/10/07 18:50:38;;;;;;;14.27;8.77;;;;;;;;;;12971824;22;20382;-86
2023/10/07 18:55:42;;;;;;;14.48;9.07;;;;;;;;;;12993472;22;20371;-87
2023/10/07 19:00:44;;;;;;;14.95;10.05;;;;;;;;;;12971838;22;20733;-86
2023/10/07 19:05:47;;;;;;;17.33;11.20;;;;;;;;;;12971308;22;20424;-86
2023/10/07 19:10:51;;;;;;;17.70;10.65;;;;;;;;;;12972432;22;20370;-86
2023/10/07 19:15:53;;;;;;;18.08;12.60;;;;;;;;;;12972543;22;20836;-86
2023/10/07 19:20:56;;;;;;;17.17;11.47;;;;;;;;;;12972351;22;20382;-87
2023/10/07 19:26:07;;;;;;;19.50;11.13;;;;;;;;;;12967647;22;20440;-86
2023/10/07 19:31:12;;;;;;;21.30;12.80;;;;;;;;;;12969367;22;20412;-86
2023/10/07 19:36:14;;;;;;;23.37;14.27;;;;;;;;;;12967027;22;20378;-86
2023/10/07 19:41:18;;;;;;;26.88;17.20;;;;;;;;;;12982380;22;20718;-86
2023/10/07 19:46:21;;;;;;;31.13;19.30;;;;;;;;;;12969229;22;20390;-86
2023/10/07 19:51:23;;;;;;;30.33;18.77;;;;;;;;;;12964794;22;20408;-86
2023/10/07 19:56:27;;;;;;;30.33;18.60;;;;;;;;;;12967121;22;20383;-87
2023/10/07 20:01:29;;;;;;;32.65;19.23;;;;;;;;;;12965183;22;20370;-87
2023/10/07 20:06:32;;;;;;;28.83;18.98;;;;;;;;;;12964657;22;20936;-86
2023/10/07 20:11:35;;;;;;;34.08;19.10;;;;;;;;;;12971356;22;20397;-86
2023/10/07 20:16:38;;;;;;;28.57;17.70;;;;;;;;;;12972660;22;20672;-85
2023/10/07 20:21:41;;;;;;;29.67;17.97;;;;;;;;;;12970407;22;20842;-86
2023/10/07 20:26:45;;;;;;;28.67;18.27;;;;;;;;;;12978769;22;20464;-86
2023/10/07 20:31:47;;;;;;;31.08;18.27;;;;;;;;;;12971301;22;20383;-86
2023/10/07 20:36:49;;;;;;;29.08;18.25;;;;;;;;;;12968369;22;20375;-86
2023/10/07 20:41:53;;;;;;;27.77;18.55;;;;;;;;;;12967141;22;20444;-86
2023/10/07 20:46:56;;;;;;;29.25;18.08;;;;;;;;;;12967577;22;20802;-86
2023/10/07 20:51:58;;;;;;;27.83;17.95;;;;;;;;;;12985251;22;20370;-86
2023/10/07 20:57:03;;;;;;;26.90;17.50;;;;;;;;;;12969251;22;20512;-86
2023/10/07 21:02:06;;;;;;;30.73;17.92;;;;;;;;;;12969737;22;20371;-86
2023/10/07 21:07:10;;;;;;;27.20;16.98;;;;;;;;;;12969934;22;20386;-86
2023/10/07 21:12:14;;;;;;;28.30;17.33;;;;;;;;;;12969646;22;21035;-86
2023/10/07 21:17:16;;;;;;;28.13;16.90;;;;;;;;;;12967833;22;20382;-86
2023/10/07 21:22:19;;;;;;;26.23;16.90;;;;;;;;;;12976796;22;20424;-85
2023/10/07 21:27:23;;;;;;;27.80;16.38;;;;;;;;;;12968172;22;20417;-86
2023/10/07 21:32:25;;;;;;;25.30;16.58;;;;;;;;;;12970279;22;20382;-85
2023/10/07 21:37:29;;;;;;;24.67;16.27;;;;;;;;;;12967395;22;20382;-86
2023/10/07 21:42:33;;;;;;;28.23;17.50;;;;;;;;;;12966337;22;20466;-86
2023/10/07 21:47:35;;;;;;;27.37;17.17;;;;;;;;;;12968384;22;20416;-87
2023/10/07 21:52:37;;;;;;;29.98;17.40;;;;;;;;;;12974240;22;20371;-87
2023/10/07 21:57:41;;;;;;;26.50;16.30;;;;;;;;;;12975219;22;20451;-86
2023/10/07 22:02:43;;;;;;;27.73;17.77;;;;;;;;;;12979915;22;20370;-86
2023/10/07 22:07:47;;;;;;;27.08;17.20;;;;;;;;;;12981929;22;20378;-86
2023/10/07 22:12:53;;;;;;;27.35;16.63;;;;;;;;;;12982569;22;20368;-86
2023/10/07 22:17:55;;;;;;;25.83;16.53;;;;;;;;;;12983172;22;20456;-86
2023/10/07 22:22:58;;;;;;;27.77;16.77;;;;;;;;;;12979739;22;20393;-85
2023/10/07 22:28:05;;;;;;;25.90;16.15;;;;;;;;;;12980416;22;20440;-86
2023/10/07 22:33:12;;;;;;;30.65;15.50;;;;;;;;;;12981507;22;20358;-86
2023/10/07 22:38:17;;;;;;;26.17;16.23;;;;;;;;;;12984031;22;20425;-85
2023/10/07 22:43:21;;;;;;;24.67;15.95;;;;;;;;;;12981899;22;20363;-86
2023/10/07 22:48:27;;;;;;;27.05;16.30;;;;;;;;;;12979815;22;20904;-85
2023/10/07 22:53:35;;;;;;;27.87;15.60;;;;;;;;;;12980283;22;20387;-86
2023/10/07 22:58:38;;;;;;;27.95;16.55;;;;;;;;;;12980382;22;20358;-89
2023/10/07 23:03:48;;;;;;;25.38;15.93;;;;;;;;;;12980339;22;20686;-88
2023/10/07 23:08:59;;;;;;;27.80;16.85;;;;;;;;;;12980041;22;20393;-89
2023/10/07 23:14:06;;;;;;;28.15;16.95;;;;;;;;;;12984571;22;20432;-88
2023/10/07 23:19:09;;;;;;;26.23;15.33;;;;;;;;;;12987360;22;20397;-88
2023/10/07 23:24:43;;;;;;;24.73;16.70;;;;;;;;;;12986617;22;20382;-89
2023/10/07 23:29:43;;;;;;;25.13;15.30;;;;;;;;;;12985816;22;20366;-87
2023/10/07 23:34:45;;;;;;;26.42;15.10;;;;;;;;;;13007753;22;20437;-89
2023/10/07 23:39:57;;;;;;;24.58;15.35;;;;;;;;;;12985393;22;20424;-88
2023/10/07 23:45:06;;;;;;;24.95;15.40;;;;;;;;;;12985462;22;20409;-88
2023/10/07 23:50:16;;;;;;;24.35;15.70;;;;;;;;;;12979368;22;20382;-88
2023/10/07 23:55:27;;;;;;;24.17;14.90;;;;;;;;;;12978891;22;20363;-88
